createdAt,value
2018-05-14T00:23:49.950Z,97915.83
2018-05-14T00:26:18.491Z,97911.33
2018-05-14T22:02:42.516Z,98178.52
2018-05-14T22:05:10.012Z,98184.77
2018-05-14T22:07:37.418Z,98181.27
2018-05-14T22:10:04.839Z,98183.59
2018-05-14T22:12:32.230Z,98186.80
2018-05-14T22:14:59.851Z,98184.27
2018-05-14T22:17:27.354Z,98178.30
2018-05-14T22:19:54.756Z,98176.68
2018-05-14T22:22:22.387Z,98175.08
2018-05-14T22:24:50.020Z,98177.64
2018-05-14T22:27:17.405Z,98169.17
2018-05-14T22:29:44.818Z,98167.17
2018-05-14T22:32:12.305Z,98166.31
2018-05-14T22:34:39.764Z,98168.47
2018-05-14T22:37:07.148Z,98158.70
2018-05-14T22:39:34.557Z,98161.88
2018-05-14T22:42:02.079Z,98152.05
2018-05-14T22:44:29.589Z,98154.72
2018-05-14T22:46:56.963Z,98151.56
2018-05-14T22:49:24.376Z,98147.73
2018-05-14T22:51:51.764Z,98151.95
2018-05-14T22:54:30.918Z,98153.30
2018-05-14T22:56:58.314Z,98149.59
2018-05-14T22:59:25.697Z,98149.41
2018-05-14T23:01:54.123Z,98141.67
2018-05-14T23:04:21.523Z,98132.66
2018-05-14T23:06:48.930Z,98128.96
2018-05-14T23:09:16.586Z,98127.87
2018-05-14T23:11:43.996Z,98138.61
2018-05-14T23:14:11.396Z,98139.63
2018-05-14T23:16:38.808Z,98137.47
2018-05-14T23:19:06.195Z,98134.63
2018-05-14T23:21:33.600Z,98136.20
2018-05-14T23:24:01.082Z,98136.20
2018-05-14T23:26:28.497Z,98139.32
2018-05-14T23:28:55.915Z,98138.84
2018-05-14T23:31:23.960Z,98140.64
2018-05-14T23:33:51.498Z,98130.51
2018-05-14T23:36:19.339Z,98138.80
2018-05-14T23:38:46.725Z,98138.38
2018-05-14T23:41:14.133Z,98143.60
2018-05-14T23:43:41.543Z,98141.13
2018-05-14T23:46:08.942Z,98152.52
2018-05-14T23:48:36.333Z,98160.55
2018-05-14T23:51:03.743Z,98157.53
2018-05-14T23:53:31.421Z,98148.69
2018-05-14T23:55:58.816Z,98158.09
2018-05-14T23:58:26.219Z,98157.98
